< < Back
Terminal Aerodrome Forecast


Current Version              Previous Versions:   1  2  3  4  5  6  7  8  9  

Terminal Aerodrome Forecast

647
FTUS42 KCHS 271540 AAC
TAFCHS
TAF AMD
KCHS 271540Z 2716/2812 26012G18KT P6SM VCSH SCT010 BKN020
     FM272100 31013G19KT P6SM SCT015 BKN025
     FM280100 34008KT P6SM BKN035=

Latest METAR

355
SAUS80 KWBC 271900
MTRCHS
METAR KCHS 271856Z 22017G22KT 10SM FEW018 BKN024 OVC050 22/16 A2964 RMK
AO2 RAB17E38 SLP035 CB DSNT NW P0000 T02170161


USA.gov is the U.S. government's official web portal to all federal, state and local government web resources and services.